sensor_id;sensor_type;location;lat;lon;timestamp;pressure;altitude;pressure_sealevel;temperature;humidity
10348;BME280;5220;43.192;23.284;2024-02-15T00:00:15;97493.06;;;8.06;100.00
10348;BME280;5220;43.192;23.284;2024-02-15T00:02:42;97493.06;;;8.06;100.00
10348;BME280;5220;43.192;23.284;2024-02-15T00:05:10;97498.25;;;8.06;100.00
10348;BME280;5220;43.192;23.284;2024-02-15T00:07:38;97500.91;;;8.04;100.00
10348;BME280;5220;43.192;23.284;2024-02-15T00:10:05;97495.66;;;8.06;100.00
10348;BME280;5220;43.192;23.284;2024-02-15T00:12:34;97498.25;;;8.06;100.00
10348;BME280;5220;43.192;23.284;2024-02-15T00:15:01;97500.31;;;7.99;100.00
10348;BME280;5220;43.192;23.284;2024-02-15T00:17:27;97497.47;;;8.04;100.00
10348;BME280;5220;43.192;23.284;2024-02-15T00:19:55;97500.56;;;7.95;100.00
10348;BME280;5220;43.192;23.284;2024-02-15T00:22:22;97501.97;;;7.85;100.00
10348;BME280;5220;43.192;23.284;2024-02-15T00:24:51;97501.78;;;7.88;100.00
10348;BME280;5220;43.192;23.284;2024-02-15T00:27:18;97508.66;;;7.89;100.00
10348;BME280;5220;43.192;23.284;2024-02-15T00:29:45;97498.41;;;7.87;100.00
10348;BME280;5220;43.192;23.284;2024-02-15T00:32:12;97496.63;;;7.88;100.00
10348;BME280;5220;43.192;23.284;2024-02-15T00:34:39;97500.81;;;7.90;100.00
10348;BME280;5220;43.192;23.284;2024-02-15T00:37:06;97492.94;;;7.92;100.00
10348;BME280;5220;43.192;23.284;2024-02-15T00:39:32;97500.88;;;7.89;100.00
10348;BME280;5220;43.192;23.284;2024-02-15T00:42:00;97502.63;;;7.88;100.00
10348;BME280;5220;43.192;23.284;2024-02-15T00:44:27;97500.97;;;7.87;100.00
10348;BME280;5220;43.192;23.284;2024-02-15T00:46:54;97494.44;;;7.80;100.00
10348;BME280;5220;43.192;23.284;2024-02-15T00:49:21;97494.28;;;7.83;100.00
10348;BME280;5220;43.192;23.284;2024-02-15T00:51:48;97500.38;;;7.82;100.00
10348;BME280;5220;43.192;23.284;2024-02-15T00:54:15;97494.19;;;7.85;100.00
10348;BME280;5220;43.192;23.284;2024-02-15T00:56:42;97492.59;;;7.82;100.00
10348;BME280;5220;43.192;23.284;2024-02-15T00:59:10;97501.22;;;7.83;100.00
10348;BME280;5220;43.192;23.284;2024-02-15T01:01:37;97500.13;;;7.87;100.00
10348;BME280;5220;43.192;23.284;2024-02-15T01:04:04;97499.47;;;7.83;100.00
10348;BME280;5220;43.192;23.284;2024-02-15T01:06:31;97497.88;;;7.81;100.00
10348;BME280;5220;43.192;23.284;2024-02-15T01:08:58;97496.78;;;7.85;100.00
10348;BME280;5220;43.192;23.284;2024-02-15T01:11:26;97497.88;;;7.81;100.00
10348;BME280;5220;43.192;23.284;2024-02-15T01:13:53;97496.47;;;7.75;100.00
10348;BME280;5220;43.192;23.284;2024-02-15T01:16:21;97499.50;;;7.66;100.00
10348;BME280;5220;43.192;23.284;2024-02-15T01:18:50;97491.50;;;7.71;100.00
10348;BME280;5220;43.192;23.284;2024-02-15T01:21:16;97495.00;;;7.70;100.00
10348;BME280;5220;43.192;23.284;2024-02-15T01:23:44;97493.88;;;7.75;100.00
10348;BME280;5220;43.192;23.284;2024-02-15T01:26:11;97503.22;;;7.78;100.00
10348;BME280;5220;43.192;23.284;2024-02-15T01:28:40;97494.53;;;7.79;100.00
10348;BME280;5220;43.192;23.284;2024-02-15T01:31:08;97497.03;;;7.80;100.00
10348;BME280;5220;43.192;23.284;2024-02-15T01:33:37;97503.97;;;7.80;100.00
10348;BME280;5220;43.192;23.284;2024-02-15T01:36:05;97505.97;;;7.75;100.00
10348;BME280;5220;43.192;23.284;2024-02-15T01:38:32;97505.19;;;7.73;100.00
10348;BME280;5220;43.192;23.284;2024-02-15T01:40:58;97500.69;;;7.76;100.00
10348;BME280;5220;43.192;23.284;2024-02-15T01:43:25;97499.44;;;7.68;100.00
10348;BME280;5220;43.192;23.284;2024-02-15T01:45:52;97499.59;;;7.65;100.00
10348;BME280;5220;43.192;23.284;2024-02-15T01:48:19;97506.47;;;7.66;100.00
10348;BME280;5220;43.192;23.284;2024-02-15T01:50:47;97503.78;;;7.67;100.00
10348;BME280;5220;43.192;23.284;2024-02-15T01:53:14;97505.47;;;7.68;100.00
10348;BME280;5220;43.192;23.284;2024-02-15T01:55:40;97507.91;;;7.54;100.00
10348;BME280;5220;43.192;23.284;2024-02-15T01:58:07;97509.78;;;7.68;100.00
10348;BME280;5220;43.192;23.284;2024-02-15T02:00:34;97508.22;;;7.65;100.00
10348;BME280;5220;43.192;23.284;2024-02-15T02:03:03;97501.78;;;7.72;100.00
10348;BME280;5220;43.192;23.284;2024-02-15T02:05:31;97503.44;;;7.73;100.00
10348;BME280;5220;43.192;23.284;2024-02-15T02:07:59;97501.72;;;7.74;100.00
10348;BME280;5220;43.192;23.284;2024-02-15T02:10:29;97505.03;;;7.76;100.00
10348;BME280;5220;43.192;23.284;2024-02-15T02:12:58;97508.41;;;7.78;100.00
10348;BME280;5220;43.192;23.284;2024-02-15T02:15:26;97502.63;;;7.73;100.00
10348;BME280;5220;43.192;23.284;2024-02-15T02:17:53;97507.78;;;7.73;100.00
10348;BME280;5220;43.192;23.284;2024-02-15T02:20:20;97504.53;;;7.69;100.00
10348;BME280;5220;43.192;23.284;2024-02-15T02:22:48;97503.78;;;7.67;100.00
10348;BME280;5220;43.192;23.284;2024-02-15T02:25:18;97517.78;;;7.63;100.00
10348;BME280;5220;43.192;23.284;2024-02-15T02:27:45;97518.94;;;7.57;100.00
10348;BME280;5220;43.192;23.284;2024-02-15T02:30:14;97521.63;;;7.56;100.00
10348;BME280;5220;43.192;23.284;2024-02-15T02:32:44;97522.13;;;7.47;100.00
10348;BME280;5220;43.192;23.284;2024-02-15T02:35:11;97523.78;;;7.48;100.00
10348;BME280;5220;43.192;23.284;2024-02-15T02:37:38;97523.41;;;7.38;100.00
10348;BME280;5220;43.192;23.284;2024-02-15T02:40:06;97518.38;;;7.35;100.00
10348;BME280;5220;43.192;23.284;2024-02-15T02:42:36;97524.66;;;7.31;100.00
10348;BME280;5220;43.192;23.284;2024-02-15T02:45:03;97522.44;;;7.24;100.00
10348;BME280;5220;43.192;23.284;2024-02-15T02:47:31;97516.16;;;7.12;100.00
10348;BME280;5220;43.192;23.284;2024-02-15T02:49:58;97518.72;;;7.12;100.00
10348;BME280;5220;43.192;23.284;2024-02-15T02:52:24;97514.63;;;7.08;100.00
10348;BME280;5220;43.192;23.284;2024-02-15T02:54:51;97518.09;;;7.07;100.00
10348;BME280;5220;43.192;23.284;2024-02-15T02:57:18;97520.25;;;6.99;100.00
10348;BME280;5220;43.192;23.284;2024-02-15T02:59:46;97520.75;;;6.88;100.00
10348;BME280;5220;43.192;23.284;2024-02-15T03:02:12;97523.81;;;6.79;100.00
10348;BME280;5220;43.192;23.284;2024-02-15T03:04:39;97528.28;;;6.76;100.00
10348;BME280;5220;43.192;23.284;2024-02-15T03:07:06;97521.59;;;6.72;100.00
10348;BME280;5220;43.192;23.284;2024-02-15T03:09:33;97540.22;;;6.61;100.00
10348;BME280;5220;43.192;23.284;2024-02-15T03:12:00;97535.28;;;6.57;100.00
10348;BME280;5220;43.192;23.284;2024-02-15T03:14:27;97539.41;;;6.42;100.00
10348;BME280;5220;43.192;23.284;2024-02-15T03:16:57;97545.00;;;6.33;100.00
10348;BME280;5220;43.192;23.284;2024-02-15T03:19:23;97552.00;;;6.31;100.00
10348;BME280;5220;43.192;23.284;2024-02-15T03:21:51;97542.66;;;6.28;100.00
10348;BME280;5220;43.192;23.284;2024-02-15T03:24:18;97549.16;;;6.18;100.00
10348;BME280;5220;43.192;23.284;2024-02-15T03:26:45;97547.97;;;6.25;100.00
10348;BME280;5220;43.192;23.284;2024-02-15T03:29:11;97556.75;;;6.21;100.00
10348;BME280;5220;43.192;23.284;2024-02-15T03:31:38;97550.75;;;6.21;100.00
10348;BME280;5220;43.192;23.284;2024-02-15T03:34:06;97547.47;;;5.99;100.00
10348;BME280;5220;43.192;23.284;2024-02-15T03:36:33;97546.94;;;5.72;100.00
10348;BME280;5220;43.192;23.284;2024-02-15T03:39:00;97542.47;;;5.75;100.00
10348;BME280;5220;43.192;23.284;2024-02-15T03:41:27;97550.00;;;5.80;100.00
10348;BME280;5220;43.192;23.284;2024-02-15T03:43:58;97545.91;;;5.76;100.00
10348;BME280;5220;43.192;23.284;2024-02-15T03:46:25;97552.38;;;5.66;100.00
10348;BME280;5220;43.192;23.284;2024-02-15T03:48:53;97552.22;;;5.69;100.00
10348;BME280;5220;43.192;23.284;2024-02-15T03:51:22;97557.72;;;5.61;100.00
10348;BME280;5220;43.192;23.284;2024-02-15T03:53:50;97552.56;;;5.61;100.00
10348;BME280;5220;43.192;23.284;2024-02-15T03:56:17;97557.78;;;5.60;100.00
10348;BME280;5220;43.192;23.284;2024-02-15T03:58:44;97552.06;;;5.33;100.00
10348;BME280;5220;43.192;23.284;2024-02-15T04:01:11;97549.34;;;5.36;100.00
10348;BME280;5220;43.192;23.284;2024-02-15T04:03:40;97558.47;;;5.45;100.00
10348;BME280;5220;43.192;23.284;2024-02-15T04:06:07;97563.88;;;5.38;100.00
10348;BME280;5220;43.192;23.284;2024-02-15T04:08:36;97562.69;;;5.46;100.00
10348;BME280;5220;43.192;23.284;2024-02-15T04:11:04;97564.19;;;5.31;100.00
10348;BME280;5220;43.192;23.284;2024-02-15T04:13:31;97566.97;;;5.26;100.00
10348;BME280;5220;43.192;23.284;2024-02-15T04:15:58;97564.25;;;5.29;100.00
10348;BME280;5220;43.192;23.284;2024-02-15T04:18:25;97558.66;;;5.40;100.00
10348;BME280;5220;43.192;23.284;2024-02-15T04:20:51;97562.13;;;5.39;100.00
10348;BME280;5220;43.192;23.284;2024-02-15T04:23:18;97563.16;;;5.15;100.00
10348;BME280;5220;43.192;23.284;2024-02-15T04:25:47;97560.53;;;5.16;100.00
10348;BME280;5220;43.192;23.284;2024-02-15T04:28:17;97566.72;;;5.12;100.00
10348;BME280;5220;43.192;23.284;2024-02-15T04:30:43;97567.34;;;4.97;100.00
10348;BME280;5220;43.192;23.284;2024-02-15T04:33:12;97566.31;;;5.21;100.00
10348;BME280;5220;43.192;23.284;2024-02-15T04:35:40;97559.22;;;5.26;100.00
10348;BME280;5220;43.192;23.284;2024-02-15T04:38:07;97564.97;;;5.33;100.00
10348;BME280;5220;43.192;23.284;2024-02-15T04:40:34;97572.06;;;5.28;100.00
10348;BME280;5220;43.192;23.284;2024-02-15T04:43:04;97574.25;;;5.37;100.00
10348;BME280;5220;43.192;23.284;2024-02-15T04:45:30;97574.25;;;5.37;100.00
10348;BME280;5220;43.192;23.284;2024-02-15T04:47:57;97580.19;;;5.39;100.00
10348;BME280;5220;43.192;23.284;2024-02-15T04:50:27;97577.69;;;5.37;100.00
10348;BME280;5220;43.192;23.284;2024-02-15T04:52:54;97579.97;;;5.23;100.00
10348;BME280;5220;43.192;23.284;2024-02-15T04:55:21;97584.25;;;5.24;100.00
10348;BME280;5220;43.192;23.284;2024-02-15T04:57:48;97580.63;;;5.08;100.00
10348;BME280;5220;43.192;23.284;2024-02-15T05:00:22;97590.94;;;5.08;100.00
10348;BME280;5220;43.192;23.284;2024-02-15T05:02:48;97593.91;;;4.99;100.00
10348;BME280;5220;43.192;23.284;2024-02-15T05:05:15;97594.78;;;4.98;100.00
10348;BME280;5220;43.192;23.284;2024-02-15T05:07:42;97594.56;;;5.04;100.00
10348;BME280;5220;43.192;23.284;2024-02-15T05:10:09;97593.25;;;4.94;100.00
10348;BME280;5220;43.192;23.284;2024-02-15T05:12:37;97601.22;;;4.88;100.00
10348;BME280;5220;43.192;23.284;2024-02-15T05:15:04;97591.41;;;4.76;100.00
10348;BME280;5220;43.192;23.284;2024-02-15T05:17:37;97595.06;;;4.70;100.00
10348;BME280;5220;43.192;23.284;2024-02-15T05:20:07;97595.34;;;4.84;100.00
10348;BME280;5220;43.192;23.284;2024-02-15T05:22:36;97592.19;;;4.78;100.00
10348;BME280;5220;43.192;23.284;2024-02-15T05:25:04;97599.38;;;4.70;100.00
10348;BME280;5220;43.192;23.284;2024-02-15T05:27:31;97602.72;;;4.72;100.00
10348;BME280;5220;43.192;23.284;2024-02-15T05:29:58;97607.69;;;4.76;100.00
10348;BME280;5220;43.192;23.284;2024-02-15T05:32:25;97605.72;;;4.61;100.00
10348;BME280;5220;43.192;23.284;2024-02-15T05:34:53;97612.19;;;4.71;100.00
10348;BME280;5220;43.192;23.284;2024-02-15T05:37:20;97613.69;;;4.77;100.00
10348;BME280;5220;43.192;23.284;2024-02-15T05:39:48;97614.66;;;4.74;100.00
10348;BME280;5220;43.192;23.284;2024-02-15T05:42:19;97622.16;;;4.80;100.00
10348;BME280;5220;43.192;23.284;2024-02-15T05:44:45;97619.56;;;4.80;100.00
10348;BME280;5220;43.192;23.284;2024-02-15T05:47:12;97629.72;;;4.85;100.00
10348;BME280;5220;43.192;23.284;2024-02-15T05:49:39;97624.97;;;4.53;100.00
10348;BME280;5220;43.192;23.284;2024-02-15T05:52:07;97628.38;;;4.75;100.00
10348;BME280;5220;43.192;23.284;2024-02-15T05:54:34;97629.03;;;4.80;100.00
10348;BME280;5220;43.192;23.284;2024-02-15T05:57:01;97629.84;;;4.82;100.00
10348;BME280;5220;43.192;23.284;2024-02-15T05:59:27;97627.06;;;4.86;100.00
10348;BME280;5220;43.192;23.284;2024-02-15T06:01:54;97627.00;;;4.88;100.00
10348;BME280;5220;43.192;23.284;2024-02-15T06:04:20;97636.34;;;4.91;100.00
10348;BME280;5220;43.192;23.284;2024-02-15T06:06:48;97641.06;;;4.79;100.00
10348;BME280;5220;43.192;23.284;2024-02-15T06:09:17;97645.19;;;4.85;100.00
10348;BME280;5220;43.192;23.284;2024-02-15T06:11:47;97644.94;;;4.69;100.00
10348;BME280;5220;43.192;23.284;2024-02-15T06:14:15;97645.53;;;4.76;100.00
10348;BME280;5220;43.192;23.284;2024-02-15T06:16:43;97643.38;;;4.87;100.00
10348;BME280;5220;43.192;23.284;2024-02-15T06:19:10;97650.25;;;4.86;100.00
10348;BME280;5220;43.192;23.284;2024-02-15T06:21:36;97651.88;;;4.89;100.00
10348;BME280;5220;43.192;23.284;2024-02-15T06:24:04;97658.41;;;4.76;100.00
10348;BME280;5220;43.192;23.284;2024-02-15T06:26:32;97662.97;;;4.91;100.00
10348;BME280;5220;43.192;23.284;2024-02-15T06:29:00;97658.34;;;4.99;100.00
10348;BME280;5220;43.192;23.284;2024-02-15T06:31:44;97661.78;;;5.00;100.00
10348;BME280;5220;43.192;23.284;2024-02-15T06:34:28;97659.69;;;4.87;100.00
10348;BME280;5220;43.192;23.284;2024-02-15T06:37:35;97668.53;;;5.02;100.00
10348;BME280;5220;43.192;23.284;2024-02-15T06:40:19;97673.44;;;5.08;100.00
10348;BME280;5220;43.192;23.284;2024-02-15T06:42:47;97672.34;;;5.14;100.00
10348;BME280;5220;43.192;23.284;2024-02-15T06:45:14;97675.63;;;5.19;100.00
10348;BME280;5220;43.192;23.284;2024-02-15T06:47:42;97675.38;;;5.25;100.00
10348;BME280;5220;43.192;23.284;2024-02-15T06:50:10;97679.16;;;5.16;100.00
10348;BME280;5220;43.192;23.284;2024-02-15T06:52:37;97681.13;;;5.31;100.00
10348;BME280;5220;43.192;23.284;2024-02-15T06:55:04;97673.78;;;5.42;100.00
10348;BME280;5220;43.192;23.284;2024-02-15T06:57:30;97675.91;;;5.53;100.00
10348;BME280;5220;43.192;23.284;2024-02-15T06:59:58;97666.91;;;5.63;100.00
10348;BME280;5220;43.192;23.284;2024-02-15T07:02:25;97669.94;;;5.73;100.00
10348;BME280;5220;43.192;23.284;2024-02-15T07:04:52;97672.94;;;5.82;100.00
10348;BME280;5220;43.192;23.284;2024-02-15T07:07:18;97670.03;;;5.91;100.00
10348;BME280;5220;43.192;23.284;2024-02-15T07:09:45;97672.13;;;6.02;100.00
10348;BME280;5220;43.192;23.284;2024-02-15T07:12:12;97669.78;;;6.16;100.00
10348;BME280;5220;43.192;23.284;2024-02-15T07:14:40;97671.69;;;6.31;100.00
10348;BME280;5220;43.192;23.284;2024-02-15T07:17:08;97663.25;;;6.46;100.00
10348;BME280;5220;43.192;23.284;2024-02-15T07:19:36;97673.03;;;6.59;100.00
10348;BME280;5220;43.192;23.284;2024-02-15T07:22:03;97673.22;;;6.73;100.00
10348;BME280;5220;43.192;23.284;2024-02-15T07:24:30;97667.63;;;6.82;100.00
10348;BME280;5220;43.192;23.284;2024-02-15T07:26:57;97667.69;;;6.80;100.00
10348;BME280;5220;43.192;23.284;2024-02-15T07:29:24;97662.31;;;7.03;100.00
10348;BME280;5220;43.192;23.284;2024-02-15T07:31:51;97655.75;;;7.14;100.00
10348;BME280;5220;43.192;23.284;2024-02-15T07:34:19;97640.72;;;7.22;100.00
10348;BME280;5220;43.192;23.284;2024-02-15T07:36:45;97643.25;;;7.40;95.91
10348;BME280;5220;43.192;23.284;2024-02-15T07:39:12;97639.03;;;7.38;84.17
10348;BME280;5220;43.192;23.284;2024-02-15T07:41:48;97639.50;;;7.46;81.28
10348;BME280;5220;43.192;23.284;2024-02-15T07:44:15;97643.53;;;7.51;72.70
10348;BME280;5220;43.192;23.284;2024-02-15T07:46:42;97639.25;;;7.50;66.81
10348;BME280;5220;43.192;23.284;2024-02-15T07:49:09;97636.59;;;7.35;65.17
10348;BME280;5220;43.192;23.284;2024-02-15T07:51:38;97640.88;;;7.36;65.96
10348;BME280;5220;43.192;23.284;2024-02-15T07:54:04;97633.41;;;7.47;68.67
10348;BME280;5220;43.192;23.284;2024-02-15T07:56:31;97637.91;;;7.43;71.48
10348;BME280;5220;43.192;23.284;2024-02-15T07:58:58;97638.28;;;7.70;72.29
10348;BME280;5220;43.192;23.284;2024-02-15T08:01:24;97634.09;;;7.68;69.96
10348;BME280;5220;43.192;23.284;2024-02-15T08:03:52;97629.56;;;7.88;68.50
10348;BME280;5220;43.192;23.284;2024-02-15T08:06:18;97633.25;;;7.67;64.18
10348;BME280;5220;43.192;23.284;2024-02-15T08:08:47;97639.03;;;7.55;63.96
10348;BME280;5220;43.192;23.284;2024-02-15T08:11:14;97627.75;;;7.73;64.77
10348;BME280;5220;43.192;23.284;2024-02-15T08:13:44;97628.88;;;7.85;62.99
10348;BME280;5220;43.192;23.284;2024-02-15T08:16:13;97625.63;;;7.81;63.26
10348;BME280;5220;43.192;23.284;2024-02-15T08:18:41;97620.25;;;8.01;64.67
10348;BME280;5220;43.192;23.284;2024-02-15T08:21:09;97618.81;;;7.96;65.32
10348;BME280;5220;43.192;23.284;2024-02-15T08:23:36;97620.44;;;8.14;63.29
10348;BME280;5220;43.192;23.284;2024-02-15T08:26:04;97621.59;;;8.08;64.50
10348;BME280;5220;43.192;23.284;2024-02-15T08:28:31;97624.63;;;8.17;66.64
10348;BME280;5220;43.192;23.284;2024-02-15T08:30:57;97624.78;;;8.31;65.83
10348;BME280;5220;43.192;23.284;2024-02-15T08:33:24;97623.44;;;8.22;67.03
10348;BME280;5220;43.192;23.284;2024-02-15T08:35:54;97634.06;;;8.18;66.07
10348;BME280;5220;43.192;23.284;2024-02-15T08:38:21;97620.19;;;8.51;64.13
10348;BME280;5220;43.192;23.284;2024-02-15T08:40:48;97619.50;;;8.63;63.27
10348;BME280;5220;43.192;23.284;2024-02-15T08:43:16;97631.56;;;8.64;65.16
10348;BME280;5220;43.192;23.284;2024-02-15T08:45:43;97623.63;;;8.68;62.60
10348;BME280;5220;43.192;23.284;2024-02-15T08:48:10;97625.25;;;8.84;62.37
10348;BME280;5220;43.192;23.284;2024-02-15T08:50:36;97627.84;;;8.84;61.87
10348;BME280;5220;43.192;23.284;2024-02-15T08:53:03;97634.34;;;8.77;61.51
10348;BME280;5220;43.192;23.284;2024-02-15T08:55:31;97615.81;;;8.99;59.36
10348;BME280;5220;43.192;23.284;2024-02-15T08:58:01;97629.13;;;9.08;59.48
10348;BME280;5220;43.192;23.284;2024-02-15T09:00:29;97625.91;;;9.03;59.38
10348;BME280;5220;43.192;23.284;2024-02-15T09:02:55;97627.06;;;9.29;59.09
10348;BME280;5220;43.192;23.284;2024-02-15T09:05:22;97628.50;;;9.19;60.62
10348;BME280;5220;43.192;23.284;2024-02-15T09:07:49;97625.69;;;9.38;59.23
10348;BME280;5220;43.192;23.284;2024-02-15T09:10:17;97632.06;;;8.87;60.70
10348;BME280;5220;43.192;23.284;2024-02-15T09:12:45;97632.44;;;9.10;63.13
10348;BME280;5220;43.192;23.284;2024-02-15T09:15:13;97620.31;;;9.41;59.52
10348;BME280;5220;43.192;23.284;2024-02-15T09:17:41;97624.97;;;9.50;58.84
10348;BME280;5220;43.192;23.284;2024-02-15T09:20:10;97632.72;;;9.65;57.50
10348;BME280;5220;43.192;23.284;2024-02-15T09:22:40;97628.22;;;9.53;55.24
10348;BME280;5220;43.192;23.284;2024-02-15T09:25:08;97620.53;;;9.52;54.47
10348;BME280;5220;43.192;23.284;2024-02-15T09:27:35;97633.91;;;9.60;55.50
10348;BME280;5220;43.192;23.284;2024-02-15T09:30:02;97625.31;;;9.73;54.91
10348;BME280;5220;43.192;23.284;2024-02-15T09:32:33;97628.03;;;9.86;56.99
10348;BME280;5220;43.192;23.284;2024-02-15T09:35:01;97625.13;;;9.91;55.01
10348;BME280;5220;43.192;23.284;2024-02-15T09:37:29;97626.63;;;9.95;58.06
10348;BME280;5220;43.192;23.284;2024-02-15T09:39:55;97628.34;;;9.52;56.73
10348;BME280;5220;43.192;23.284;2024-02-15T09:42:24;97628.22;;;9.97;58.23
10348;BME280;5220;43.192;23.284;2024-02-15T09:44:51;97628.81;;;10.16;56.61
10348;BME280;5220;43.192;23.284;2024-02-15T09:47:18;97614.78;;;10.19;57.85
10348;BME280;5220;43.192;23.284;2024-02-15T09:49:45;97613.78;;;10.36;57.29
10348;BME280;5220;43.192;23.284;2024-02-15T09:52:14;97610.34;;;10.21;56.24
10348;BME280;5220;43.192;23.284;2024-02-15T09:54:43;97615.25;;;10.11;54.99
10348;BME280;5220;43.192;23.284;2024-02-15T09:57:11;97608.56;;;10.21;57.80
10348;BME280;5220;43.192;23.284;2024-02-15T09:59:38;97607.16;;;10.85;100.00
10348;BME280;5220;43.192;23.284;2024-02-15T10:02:05;97612.25;;;10.87;63.00
10348;BME280;5220;43.192;23.284;2024-02-15T10:04:36;97605.66;;;10.54;57.91
10348;BME280;5220;43.192;23.284;2024-02-15T10:07:04;97609.69;;;10.32;57.81
10348;BME280;5220;43.192;23.284;2024-02-15T10:09:32;97594.53;;;10.38;55.68
10348;BME280;5220;43.192;23.284;2024-02-15T10:11:59;97590.75;;;10.70;55.98
10348;BME280;5220;43.192;23.284;2024-02-15T10:14:28;97587.72;;;10.91;55.81
10348;BME280;5220;43.192;23.284;2024-02-15T10:16:55;97582.03;;;10.98;56.28
10348;BME280;5220;43.192;23.284;2024-02-15T10:19:23;97579.88;;;11.05;55.42
10348;BME280;5220;43.192;23.284;2024-02-15T10:21:54;97577.75;;;10.97;55.07
10348;BME280;5220;43.192;23.284;2024-02-15T10:24:23;97585.19;;;11.16;55.03
10348;BME280;5220;43.192;23.284;2024-02-15T10:26:51;97581.47;;;11.20;55.61
10348;BME280;5220;43.192;23.284;2024-02-15T10:29:19;97578.47;;;11.26;54.37
10348;BME280;5220;43.192;23.284;2024-02-15T10:31:53;97580.03;;;10.89;52.19
10348;BME280;5220;43.192;23.284;2024-02-15T10:34:21;97578.72;;;10.82;52.16
10348;BME280;5220;43.192;23.284;2024-02-15T10:36:48;97572.06;;;11.05;52.72
10348;BME280;5220;43.192;23.284;2024-02-15T10:39:16;97570.44;;;11.29;52.33
10348;BME280;5220;43.192;23.284;2024-02-15T10:41:45;97564.91;;;11.33;54.29
10348;BME280;5220;43.192;23.284;2024-02-15T10:44:18;97555.44;;;11.20;52.55
10348;BME280;5220;43.192;23.284;2024-02-15T10:46:46;97553.28;;;11.52;53.11
10348;BME280;5220;43.192;23.284;2024-02-15T10:49:19;97548.88;;;11.40;52.18
10348;BME280;5220;43.192;23.284;2024-02-15T10:51:50;97553.72;;;11.46;51.42
10348;BME280;5220;43.192;23.284;2024-02-15T10:57:06;97546.91;;;11.56;52.97
10348;BME280;5220;43.192;23.284;2024-02-15T10:59:37;97550.16;;;11.59;50.99
10348;BME280;5220;43.192;23.284;2024-02-15T11:02:25;97540.88;;;11.68;50.65
10348;BME280;5220;43.192;23.284;2024-02-15T11:04:53;97539.31;;;11.65;51.34
10348;BME280;5220;43.192;23.284;2024-02-15T11:07:24;97536.94;;;11.88;53.57
10348;BME280;5220;43.192;23.284;2024-02-15T11:09:51;97543.22;;;11.85;51.84
10348;BME280;5220;43.192;23.284;2024-02-15T11:12:18;97544.88;;;11.73;51.62
10348;BME280;5220;43.192;23.284;2024-02-15T11:14:47;97537.16;;;11.97;53.21
10348;BME280;5220;43.192;23.284;2024-02-15T11:17:44;97538.50;;;11.77;51.49
10348;BME280;5220;43.192;23.284;2024-02-15T11:20:45;97541.22;;;12.01;54.02
10348;BME280;5220;43.192;23.284;2024-02-15T11:23:23;97536.19;;;12.11;51.87
10348;BME280;5220;43.192;23.284;2024-02-15T11:25:50;97535.16;;;12.13;51.02
10348;BME280;5220;43.192;23.284;2024-02-15T11:28:37;97524.69;;;12.26;51.83
10348;BME280;5220;43.192;23.284;2024-02-15T11:31:09;97526.25;;;12.16;51.08
10348;BME280;5220;43.192;23.284;2024-02-15T11:33:37;97525.81;;;12.34;50.81
10348;BME280;5220;43.192;23.284;2024-02-15T11:36:09;97528.63;;;12.31;49.55
10348;BME280;5220;43.192;23.284;2024-02-15T11:38:37;97524.53;;;12.40;49.89
10348;BME280;5220;43.192;23.284;2024-02-15T11:41:07;97526.72;;;12.33;49.43
10348;BME280;5220;43.192;23.284;2024-02-15T11:44:01;97528.00;;;12.28;49.59
10348;BME280;5220;43.192;23.284;2024-02-15T11:46:27;97519.13;;;11.81;50.04
10348;BME280;5220;43.192;23.284;2024-02-15T11:49:00;97517.66;;;11.77;51.48
10348;BME280;5220;43.192;23.284;2024-02-15T11:51:31;97519.22;;;11.80;51.74
10348;BME280;5220;43.192;23.284;2024-02-15T11:54:09;97520.59;;;11.85;52.42
10348;BME280;5220;43.192;23.284;2024-02-15T11:56:53;97519.28;;;12.16;52.44
10348;BME280;5220;43.192;23.284;2024-02-15T11:59:39;97522.44;;;12.45;51.72
10348;BME280;5220;43.192;23.284;2024-02-15T12:02:18;97519.22;;;12.65;51.21
10348;BME280;5220;43.192;23.284;2024-02-15T12:05:04;97505.06;;;12.80;51.06
10348;BME280;5220;43.192;23.284;2024-02-15T12:07:55;97507.34;;;12.85;50.48
10348;BME280;5220;43.192;23.284;2024-02-15T12:10:39;97506.06;;;12.90;50.53
10348;BME280;5220;43.192;23.284;2024-02-15T12:13:23;97508.16;;;13.09;50.80
10348;BME280;5220;43.192;23.284;2024-02-15T12:16:07;97501.31;;;13.19;50.82
10348;BME280;5220;43.192;23.284;2024-02-15T12:18:51;97498.63;;;13.32;48.69
10348;BME280;5220;43.192;23.284;2024-02-15T12:21:21;97499.69;;;13.40;48.49
10348;BME280;5220;43.192;23.284;2024-02-15T12:23:52;97500.25;;;13.33;49.78
10348;BME280;5220;43.192;23.284;2024-02-15T12:26:19;97501.09;;;12.99;48.24
10348;BME280;5220;43.192;23.284;2024-02-15T12:28:50;97491.72;;;12.72;48.79
10348;BME280;5220;43.192;23.284;2024-02-15T12:31:20;97491.22;;;12.67;48.69
10348;BME280;5220;43.192;23.284;2024-02-15T12:33:47;97491.41;;;12.53;49.37
10348;BME280;5220;43.192;23.284;2024-02-15T12:36:26;97489.22;;;12.23;50.45
10348;BME280;5220;43.192;23.284;2024-02-15T12:39:00;97491.22;;;12.20;49.93
10348;BME280;5220;43.192;23.284;2024-02-15T12:41:27;97487.59;;;11.97;50.37
10348;BME280;5220;43.192;23.284;2024-02-15T12:43:53;97491.25;;;11.69;49.93
10348;BME280;5220;43.192;23.284;2024-02-15T12:46:22;97487.63;;;11.59;51.17
10348;BME280;5220;43.192;23.284;2024-02-15T12:48:49;97484.81;;;11.88;50.15
10348;BME280;5220;43.192;23.284;2024-02-15T12:51:18;97476.66;;;12.28;50.39
10348;BME280;5220;43.192;23.284;2024-02-15T12:53:46;97482.59;;;12.30;49.33
10348;BME280;5220;43.192;23.284;2024-02-15T12:56:21;97478.00;;;12.10;49.22
10348;BME280;5220;43.192;23.284;2024-02-15T12:58:49;97484.31;;;12.19;48.54
10348;BME280;5220;43.192;23.284;2024-02-15T13:01:16;97470.25;;;12.45;49.39
10348;BME280;5220;43.192;23.284;2024-02-15T13:03:42;97468.28;;;12.36;49.60
10348;BME280;5220;43.192;23.284;2024-02-15T13:06:09;97470.63;;;12.52;49.57
10348;BME280;5220;43.192;23.284;2024-02-15T13:08:36;97466.00;;;12.55;49.44
10348;BME280;5220;43.192;23.284;2024-02-15T13:11:03;97467.09;;;12.76;49.19
10348;BME280;5220;43.192;23.284;2024-02-15T13:13:31;97461.59;;;13.03;47.40